Bda La Cambija, Puerto Rico
Current Conditions -  °F | °C
As of 9:56 AM on Monday 22 Dec 2014 (Local Time) from TJSJ Reporting Station
Scattered Clouds Scattered Clouds  
Wind Chill: 82°   Ceiling: Unl
Heat Index: 87°   Visibility: 10mi
Dew Point: 73°   Wind: 7mph
Humidity: 74%   Direction: 70°ENE
Pressure: 30.08"   Gusts: NA
Location:  18.1808°N, 66.1122°W
Report Text: TJSJ 221356Z 07006KT 10SM FEW028 SCT036 SCT065 28/23 A3008 RMK AO2 SLP183 T02780228
Loading
Personal Weather Stations






























Interactive Weather Map New forecast layout! Learn more

10-Day Weather Forecast

Advertisements
Track Severe Weather on mobile